createdAt,value
2022-11-15T00:00:53.191Z,100.00
2022-11-15T00:03:38.355Z,100.00
2022-11-15T00:06:23.397Z,100.00
2022-11-15T00:09:08.239Z,100.00
2022-11-15T00:11:53.383Z,100.00
2022-11-15T00:14:38.220Z,100.00
2022-11-15T00:17:23.102Z,100.00
2022-11-15T00:20:08.504Z,100.00
2022-11-15T00:22:53.704Z,100.00
2022-11-15T00:25:39.056Z,100.00
2022-11-15T00:28:24.349Z,100.00
2022-11-15T00:31:11.684Z,100.00
2022-11-15T00:33:56.961Z,100.00
2022-11-15T00:36:41.768Z,100.00
2022-11-15T00:39:26.495Z,100.00
2022-11-15T00:42:11.557Z,100.00
2022-11-15T00:44:57.093Z,100.00
2022-11-15T00:47:44.907Z,100.00
2022-11-15T00:50:30.059Z,100.00
2022-11-15T00:53:15.462Z,100.00
2022-11-15T00:56:00.421Z,100.00
2022-11-15T00:58:45.606Z,100.00
2022-11-15T01:01:30.680Z,100.00
2022-11-15T01:04:15.516Z,100.00
2022-11-15T01:07:00.655Z,100.00
2022-11-15T01:09:45.467Z,100.00
2022-11-15T01:12:30.953Z,100.00
2022-11-15T01:15:16.103Z,100.00
2022-11-15T01:18:01.196Z,100.00
2022-11-15T01:20:46.039Z,100.00
2022-11-15T01:23:31.362Z,100.00
2022-11-15T01:26:17.040Z,100.00
2022-11-15T01:29:02.085Z,100.00
2022-11-15T01:31:46.924Z,100.00
2022-11-15T01:34:31.800Z,100.00
2022-11-15T01:37:16.735Z,100.00
2022-11-15T01:40:01.727Z,100.00
2022-11-15T01:42:47.038Z,100.00
2022-11-15T01:45:32.401Z,100.00
2022-11-15T01:48:17.562Z,100.00
2022-11-15T01:51:05.756Z,100.00
2022-11-15T01:53:53.547Z,100.00
2022-11-15T01:56:42.276Z,100.00
2022-11-15T01:59:27.384Z,100.00
2022-11-15T02:02:12.797Z,100.00
2022-11-15T02:04:58.195Z,100.00
2022-11-15T02:07:43.685Z,100.00
2022-11-15T02:10:28.989Z,100.00
2022-11-15T02:13:17.442Z,100.00
2022-11-15T02:16:14.076Z,100.00
2022-11-15T02:19:02.441Z,100.00
2022-11-15T02:22:06.224Z,100.00
2022-11-15T02:24:57.210Z,100.00
2022-11-15T02:27:48.164Z,100.00
2022-11-15T02:30:42.402Z,100.00
2022-11-15T02:33:33.525Z,100.00
2022-11-15T02:36:37.633Z,100.00
2022-11-15T02:39:36.482Z,100.00
2022-11-15T02:42:44.637Z,100.00
2022-11-15T02:45:33.055Z,100.00
2022-11-15T02:48:18.697Z,100.00
2022-11-15T02:51:03.681Z,100.00
2022-11-15T02:53:48.922Z,100.00
2022-11-15T02:56:34.036Z,100.00
2022-11-15T02:59:36.308Z,100.00
2022-11-15T03:02:27.408Z,100.00
2022-11-15T03:05:26.418Z,100.00
2022-11-15T03:08:18.478Z,100.00
2022-11-15T03:11:14.479Z,100.00
2022-11-15T03:14:02.685Z,100.00
2022-11-15T03:17:00.368Z,100.00
2022-11-15T03:19:47.820Z,100.00
2022-11-15T03:22:36.067Z,100.00
2022-11-15T03:25:23.852Z,100.00
2022-11-15T03:28:11.808Z,100.00
2022-11-15T03:30:57.702Z,100.00
2022-11-15T03:33:43.839Z,100.00
2022-11-15T03:36:29.994Z,100.00
2022-11-15T03:39:20.422Z,100.00
2022-11-15T03:42:05.465Z,100.00
2022-11-15T03:45:03.350Z,100.00
2022-11-15T03:48:03.860Z,100.00
2022-11-15T03:50:49.517Z,100.00
2022-11-15T03:53:34.607Z,100.00
2022-11-15T03:56:19.591Z,100.00
2022-11-15T03:59:04.305Z,100.00
2022-11-15T04:01:49.240Z,100.00
2022-11-15T04:04:34.260Z,100.00
2022-11-15T04:07:19.540Z,100.00
2022-11-15T04:10:06.254Z,100.00
2022-11-15T04:12:51.548Z,100.00
2022-11-15T04:15:36.892Z,100.00
2022-11-15T04:18:21.921Z,100.00
2022-11-15T04:21:25.640Z,100.00
2022-11-15T04:24:13.673Z,100.00
2022-11-15T04:26:58.649Z,100.00
2022-11-15T04:29:43.991Z,100.00
2022-11-15T04:32:29.066Z,100.00
2022-11-15T04:35:14.021Z,100.00
2022-11-15T04:37:59.614Z,100.00
2022-11-15T04:40:44.673Z,100.00
2022-11-15T04:43:30.438Z,100.00
2022-11-15T04:46:15.815Z,100.00
2022-11-15T04:49:00.821Z,100.00
2022-11-15T04:51:46.224Z,100.00
2022-11-15T04:54:31.506Z,100.00
2022-11-15T04:57:16.636Z,100.00
2022-11-15T05:00:02.200Z,100.00
2022-11-15T05:03:05.983Z,100.00
2022-11-15T05:05:53.458Z,100.00
2022-11-15T05:08:38.460Z,100.00
2022-11-15T05:11:23.721Z,100.00
2022-11-15T05:14:08.766Z,100.00
2022-11-15T05:16:55.532Z,100.00
2022-11-15T05:19:40.908Z,100.00
2022-11-15T05:22:26.168Z,100.00
2022-11-15T05:25:11.327Z,100.00
2022-11-15T05:27:56.569Z,100.00
2022-11-15T05:30:41.569Z,100.00
2022-11-15T05:33:26.941Z,100.00
2022-11-15T05:36:21.423Z,100.00
2022-11-15T05:39:09.207Z,100.00
2022-11-15T05:41:57.010Z,100.00
2022-11-15T05:44:45.274Z,100.00
2022-11-15T05:47:30.562Z,100.00
2022-11-15T05:50:17.623Z,100.00
2022-11-15T05:53:05.288Z,100.00
2022-11-15T05:55:50.853Z,100.00
2022-11-15T05:58:36.907Z,100.00
2022-11-15T06:01:22.261Z,100.00
2022-11-15T06:04:07.180Z,100.00
2022-11-15T06:06:52.076Z,100.00
2022-11-15T06:09:37.101Z,100.00
2022-11-15T06:12:21.972Z,100.00
2022-11-15T06:15:07.309Z,100.00
2022-11-15T06:17:52.820Z,100.00
2022-11-15T06:20:38.034Z,100.00
2022-11-15T06:23:23.161Z,100.00
2022-11-15T06:26:08.750Z,100.00
2022-11-15T06:28:54.010Z,100.00
2022-11-15T06:31:38.806Z,100.00
2022-11-15T06:34:23.610Z,100.00
2022-11-15T06:37:08.344Z,100.00
2022-11-15T06:39:53.273Z,100.00
2022-11-15T06:42:38.110Z,100.00
2022-11-15T06:45:23.035Z,100.00
2022-11-15T06:48:08.156Z,100.00
2022-11-15T06:50:56.953Z,100.00
2022-11-15T06:53:42.157Z,100.00
2022-11-15T06:56:27.119Z,100.00
2022-11-15T06:59:12.012Z,100.00
2022-11-15T07:01:57.039Z,100.00
2022-11-15T07:04:41.748Z,100.00
2022-11-15T07:07:26.853Z,100.00
2022-11-15T07:10:12.166Z,100.00
2022-11-15T07:12:57.361Z,100.00
2022-11-15T07:15:42.347Z,100.00
2022-11-15T07:18:28.367Z,100.00
2022-11-15T07:21:13.764Z,100.00
2022-11-15T07:23:58.922Z,100.00
2022-11-15T07:26:43.878Z,100.00
2022-11-15T07:29:29.236Z,100.00
2022-11-15T07:32:14.259Z,100.00
2022-11-15T07:34:59.401Z,100.00
2022-11-15T07:37:44.178Z,100.00
2022-11-15T07:40:30.561Z,100.00
2022-11-15T07:43:15.394Z,100.00
2022-11-15T07:46:00.321Z,100.00
2022-11-15T07:48:45.878Z,100.00
2022-11-15T07:51:30.844Z,100.00
2022-11-15T07:54:15.695Z,100.00
2022-11-15T07:57:05.726Z,100.00
2022-11-15T07:59:52.615Z,100.00
2022-11-15T08:02:37.520Z,100.00
2022-11-15T08:05:22.676Z,100.00
2022-11-15T08:08:08.342Z,100.00
2022-11-15T08:10:53.445Z,100.00
2022-11-15T08:13:38.284Z,100.00
2022-11-15T08:16:23.118Z,100.00
2022-11-15T08:19:08.042Z,100.00
2022-11-15T08:21:53.139Z,100.00
2022-11-15T08:24:38.007Z,100.00
2022-11-15T08:27:23.340Z,100.00
2022-11-15T08:30:08.176Z,100.00
2022-11-15T08:32:54.401Z,100.00
2022-11-15T08:35:39.657Z,100.00
2022-11-15T08:38:24.664Z,100.00
2022-11-15T08:41:31.024Z,100.00
2022-11-15T08:44:15.992Z,100.00
2022-11-15T08:47:00.801Z,100.00
2022-11-15T08:49:45.783Z,100.00
2022-11-15T08:52:30.500Z,100.00
2022-11-15T08:55:17.480Z,100.00
2022-11-15T08:58:02.730Z,100.00
2022-11-15T09:00:47.734Z,100.00
2022-11-15T09:03:33.153Z,100.00
2022-11-15T09:06:18.370Z,100.00
2022-11-15T09:09:04.029Z,100.00
2022-11-15T09:11:49.797Z,100.00
2022-11-15T09:14:35.321Z,100.00
2022-11-15T09:17:24.381Z,100.00
2022-11-15T09:20:10.302Z,100.00
2022-11-15T09:22:55.524Z,100.00
2022-11-15T09:25:40.450Z,100.00
2022-11-15T09:28:25.228Z,100.00
2022-11-15T09:31:10.479Z,100.00
2022-11-15T09:33:55.802Z,100.00
2022-11-15T09:36:41.012Z,100.00
2022-11-15T09:39:25.925Z,100.00
2022-11-15T09:42:20.170Z,100.00
2022-11-15T09:45:08.325Z,100.00
2022-11-15T09:47:59.881Z,100.00
2022-11-15T09:50:49.624Z,100.00
2022-11-15T09:53:47.904Z,100.00
2022-11-15T09:56:23.274Z,100.00
2022-11-15T09:58:49.715Z,100.00
2022-11-15T10:01:20.100Z,100.00
2022-11-15T10:03:46.649Z,100.00
2022-11-15T10:06:24.060Z,100.00
2022-11-15T10:09:02.844Z,100.00
2022-11-15T10:11:39.587Z,100.00
2022-11-15T10:14:14.665Z,98.69
2022-11-15T10:17:00.103Z,99.80
2022-11-15T10:19:35.584Z,99.17
2022-11-15T10:22:20.586Z,100.00
2022-11-15T10:24:47.360Z,99.49
2022-11-15T10:27:15.648Z,100.00
2022-11-15T10:29:51.507Z,99.08
2022-11-15T10:32:19.351Z,100.00
2022-11-15T10:34:46.548Z,98.58
2022-11-15T10:37:13.113Z,99.22
2022-11-15T10:39:39.728Z,96.65
2022-11-15T10:42:17.950Z,96.54
2022-11-15T10:44:45.728Z,96.15
2022-11-15T10:47:23.700Z,97.09
2022-11-15T10:50:00.973Z,97.80
2022-11-15T10:52:27.820Z,98.70
2022-11-15T10:55:03.641Z,96.94
2022-11-15T10:57:36.702Z,96.21
2022-11-15T11:00:06.116Z,97.50
2022-11-15T11:02:40.481Z,97.53
2022-11-15T11:05:26.203Z,97.62
2022-11-15T11:08:00.140Z,98.71
2022-11-15T11:10:50.530Z,97.98
2022-11-15T11:13:14.512Z,97.34
2022-11-15T11:15:42.712Z,98.91
2022-11-15T11:18:16.375Z,98.46
2022-11-15T11:20:46.317Z,97.01
2022-11-15T11:23:19.556Z,95.81
2022-11-15T11:25:52.500Z,96.22
2022-11-15T11:28:30.600Z,96.82
2022-11-15T11:31:05.437Z,97.12
2022-11-15T11:33:33.482Z,95.56
2022-11-15T11:36:18.748Z,95.81
2022-11-15T11:39:03.746Z,94.26
2022-11-15T11:41:43.922Z,95.61
2022-11-15T11:44:16.410Z,94.48
2022-11-15T11:46:48.682Z,96.43
2022-11-15T11:49:38.401Z,96.72
2022-11-15T11:52:20.399Z,96.45
2022-11-15T11:54:55.374Z,97.57
2022-11-15T11:57:42.254Z,97.91
2022-11-15T12:00:18.017Z,98.49
2022-11-15T12:02:48.697Z,98.83
2022-11-15T12:05:28.558Z,99.55
2022-11-15T12:08:01.810Z,97.59
2022-11-15T12:10:31.403Z,98.81
2022-11-15T12:13:02.417Z,98.30
2022-11-15T12:15:32.936Z,98.00
2022-11-15T12:18:01.277Z,99.84
2022-11-15T12:20:29.180Z,99.48
2022-11-15T12:23:07.132Z,99.11
2022-11-15T12:25:38.287Z,99.36
2022-11-15T12:28:14.079Z,100.00
2022-11-15T12:31:06.977Z,100.00
2022-11-15T12:33:33.417Z,100.00
2022-11-15T12:36:01.749Z,100.00
2022-11-15T12:38:47.065Z,100.00
2022-11-15T12:41:20.485Z,100.00
2022-11-15T12:43:48.201Z,100.00
2022-11-15T12:46:22.546Z,100.00
2022-11-15T12:48:50.938Z,100.00
2022-11-15T12:51:18.093Z,100.00
2022-11-15T12:53:44.716Z,100.00
2022-11-15T12:56:15.905Z,100.00
2022-11-15T12:59:14.838Z,100.00
2022-11-15T13:01:41.300Z,100.00
2022-11-15T13:04:20.091Z,100.00
2022-11-15T13:06:51.052Z,100.00
2022-11-15T13:09:29.844Z,100.00
2022-11-15T13:12:04.363Z,100.00
2022-11-15T13:14:41.230Z,100.00
2022-11-15T13:17:20.947Z,100.00
2022-11-15T13:19:48.699Z,100.00
2022-11-15T13:22:34.396Z,100.00
2022-11-15T13:25:04.563Z,100.00
2022-11-15T13:27:31.997Z,100.00
2022-11-15T13:29:58.484Z,100.00
2022-11-15T13:32:25.613Z,100.00
2022-11-15T13:34:53.819Z,100.00
2022-11-15T13:37:23.426Z,100.00
2022-11-15T13:39:50.354Z,100.00
2022-11-15T13:42:17.884Z,100.00
2022-11-15T13:45:00.835Z,100.00
2022-11-15T13:47:28.861Z,100.00
2022-11-15T13:49:57.653Z,100.00
2022-11-15T13:52:26.732Z,100.00
2022-11-15T13:54:59.416Z,100.00
2022-11-15T13:57:28.740Z,100.00
2022-11-15T14:00:03.732Z,100.00
2022-11-15T14:02:38.370Z,100.00
2022-11-15T14:05:19.330Z,100.00
2022-11-15T14:07:56.156Z,99.55
2022-11-15T14:10:30.128Z,100.00
2022-11-15T14:12:56.892Z,100.00
2022-11-15T14:15:29.062Z,100.00
2022-11-15T14:17:55.632Z,100.00
2022-11-15T14:20:39.432Z,100.00
2022-11-15T14:23:19.220Z,100.00
2022-11-15T14:25:59.587Z,100.00
2022-11-15T14:28:26.067Z,100.00
2022-11-15T14:30:54.261Z,100.00
2022-11-15T14:33:20.696Z,100.00
2022-11-15T14:35:47.242Z,100.00
2022-11-15T14:38:14.129Z,100.00
2022-11-15T14:40:40.614Z,100.00
2022-11-15T14:43:09.579Z,100.00
2022-11-15T14:45:36.131Z,100.00
2022-11-15T14:48:02.616Z,100.00
2022-11-15T14:50:29.157Z,100.00
2022-11-15T14:52:55.633Z,100.00
2022-11-15T14:55:24.249Z,100.00
2022-11-15T14:57:51.229Z,100.00
2022-11-15T15:00:17.867Z,100.00
2022-11-15T15:02:45.390Z,100.00
2022-11-15T15:05:16.817Z,100.00
2022-11-15T15:07:43.602Z,100.00
2022-11-15T15:10:38.347Z,100.00
2022-11-15T15:12:57.060Z,100.00
2022-11-15T15:15:25.524Z,100.00
2022-11-15T15:17:51.969Z,100.00
2022-11-15T15:20:18.756Z,100.00
2022-11-15T15:22:45.575Z,100.00
2022-11-15T15:25:27.936Z,100.00
2022-11-15T15:27:55.429Z,100.00
2022-11-15T15:30:22.552Z,100.00
2022-11-15T15:32:49.510Z,100.00
2022-11-15T15:35:16.838Z,100.00
2022-11-15T15:37:44.310Z,100.00
2022-11-15T15:40:16.978Z,100.00
2022-11-15T15:42:43.970Z,100.00
2022-11-15T15:45:10.627Z,100.00
2022-11-15T15:47:37.146Z,100.00
2022-11-15T15:50:04.231Z,100.00
2022-11-15T15:52:30.747Z,100.00
2022-11-15T15:54:57.174Z,100.00
2022-11-15T15:57:23.693Z,100.00
2022-11-15T15:59:50.190Z,99.16
2022-11-15T16:02:16.701Z,99.87
2022-11-15T16:04:43.145Z,99.20
2022-11-15T16:07:16.657Z,99.33
2022-11-15T16:10:01.752Z,98.88
2022-11-15T16:12:28.967Z,99.51
2022-11-15T16:14:55.595Z,98.93
2022-11-15T16:17:23.801Z,99.56
2022-11-15T16:19:50.258Z,98.83
2022-11-15T16:22:16.732Z,97.57
2022-11-15T16:24:43.216Z,97.80
2022-11-15T16:27:15.033Z,99.53
2022-11-15T16:29:41.603Z,99.78
2022-11-15T16:32:08.095Z,99.34
2022-11-15T16:34:39.948Z,98.09
2022-11-15T16:37:16.494Z,97.08
2022-11-15T16:39:43.065Z,97.18
2022-11-15T16:42:09.480Z,96.46
2022-11-15T16:44:35.989Z,97.22
2022-11-15T16:47:02.495Z,97.76
2022-11-15T16:49:28.981Z,97.55
2022-11-15T16:51:55.511Z,98.01
2022-11-15T16:54:22.124Z,98.57
2022-11-15T16:56:48.608Z,99.48
2022-11-15T16:59:16.783Z,99.20
2022-11-15T17:01:52.685Z,99.31
2022-11-15T17:04:19.732Z,99.44
2022-11-15T17:06:47.851Z,99.00
2022-11-15T17:09:18.751Z,98.61
2022-11-15T17:11:45.687Z,99.74
2022-11-15T17:14:12.913Z,99.28
2022-11-15T17:16:42.351Z,99.10
2022-11-15T17:19:13.001Z,100.00
2022-11-15T17:21:39.664Z,98.90
2022-11-15T17:24:06.156Z,99.19
2022-11-15T17:26:36.097Z,99.25
2022-11-15T17:29:04.615Z,98.53
2022-11-15T17:31:33.609Z,98.54
2022-11-15T17:34:04.360Z,98.55
2022-11-15T17:36:30.888Z,98.22
2022-11-15T17:38:59.699Z,98.47
2022-11-15T17:41:27.227Z,98.26
2022-11-15T17:43:53.813Z,99.30
2022-11-15T17:46:21.338Z,99.25
2022-11-15T17:48:48.549Z,99.93
2022-11-15T17:51:16.650Z,99.68
2022-11-15T17:53:45.022Z,98.85
2022-11-15T17:56:12.838Z,99.33
2022-11-15T17:58:39.624Z,99.20
2022-11-15T18:01:13.056Z,99.08
2022-11-15T18:03:39.625Z,98.95
2022-11-15T18:06:06.621Z,99.47
2022-11-15T18:08:35.250Z,100.00
2022-11-15T18:11:05.998Z,100.00
2022-11-15T18:13:32.959Z,100.00
2022-11-15T18:16:02.796Z,100.00
2022-11-15T18:18:30.459Z,99.98
2022-11-15T18:21:04.534Z,100.00
2022-11-15T18:23:31.956Z,99.46
2022-11-15T18:25:59.057Z,99.54
2022-11-15T18:28:36.657Z,99.17
2022-11-15T18:31:04.525Z,99.46
2022-11-15T18:33:37.476Z,99.81
2022-11-15T18:36:05.716Z,99.43
2022-11-15T18:38:32.507Z,99.97
2022-11-15T18:41:04.892Z,99.52
2022-11-15T18:43:31.737Z,100.00
2022-11-15T18:46:04.659Z,99.73
2022-11-15T18:48:32.048Z,99.53
2022-11-15T18:51:05.382Z,99.44
2022-11-15T18:53:32.804Z,99.26
2022-11-15T18:56:03.505Z,100.00
2022-11-15T18:58:30.942Z,100.00
2022-11-15T19:01:01.746Z,100.00
2022-11-15T19:03:31.495Z,99.59
2022-11-15T19:06:05.349Z,99.09
2022-11-15T19:08:35.530Z,99.79
2022-11-15T19:11:12.593Z,99.09
2022-11-15T19:13:39.501Z,98.73
2022-11-15T19:16:06.631Z,99.91
2022-11-15T19:18:33.438Z,99.76
2022-11-15T19:21:03.635Z,99.95
2022-11-15T19:23:33.666Z,99.25
2022-11-15T19:26:01.160Z,99.36
2022-11-15T19:28:28.282Z,99.43
2022-11-15T19:31:02.505Z,99.68
2022-11-15T19:33:29.242Z,99.50
2022-11-15T19:36:03.091Z,99.16
2022-11-15T19:38:33.371Z,99.32
2022-11-15T19:41:00.694Z,99.25
2022-11-15T19:43:27.954Z,99.68
2022-11-15T19:46:02.365Z,98.16
2022-11-15T19:48:32.929Z,97.54
2022-11-15T19:51:03.523Z,97.78
2022-11-15T19:53:35.177Z,97.54
2022-11-15T19:56:03.620Z,97.48
2022-11-15T19:58:30.695Z,97.47
2022-11-15T20:01:07.832Z,97.34
2022-11-15T20:03:35.814Z,97.62
2022-11-15T20:06:05.410Z,97.72
2022-11-15T20:08:32.177Z,97.36
2022-11-15T20:10:59.359Z,97.29
2022-11-15T20:13:25.927Z,97.51
2022-11-15T20:15:52.777Z,97.08
2022-11-15T20:18:19.656Z,97.44
2022-11-15T20:20:47.184Z,97.93
2022-11-15T20:23:13.718Z,97.79
2022-11-15T20:25:40.509Z,98.12
2022-11-15T20:28:07.505Z,97.65
2022-11-15T20:30:34.096Z,97.08
2022-11-15T20:33:00.567Z,96.91
2022-11-15T20:35:27.011Z,96.57
2022-11-15T20:37:53.456Z,96.05
2022-11-15T20:40:19.951Z,96.55
2022-11-15T20:42:46.784Z,96.24
2022-11-15T20:45:13.257Z,96.66
2022-11-15T20:47:39.761Z,96.97
2022-11-15T20:50:35.306Z,96.94
2022-11-15T20:52:53.433Z,97.55
2022-11-15T20:55:19.934Z,97.39
2022-11-15T20:57:46.460Z,97.09
2022-11-15T21:00:13.130Z,97.05
2022-11-15T21:02:39.779Z,96.35
2022-11-15T21:05:06.532Z,95.93
2022-11-15T21:07:33.043Z,96.43
2022-11-15T21:10:18.274Z,96.58
2022-11-15T21:12:44.970Z,96.72
2022-11-15T21:15:11.421Z,96.72
2022-11-15T21:17:37.895Z,97.08
2022-11-15T21:20:04.506Z,96.45
2022-11-15T21:22:31.010Z,97.45
2022-11-15T21:24:59.384Z,96.53
2022-11-15T21:27:26.050Z,95.58
2022-11-15T21:29:52.544Z,95.49
2022-11-15T21:32:19.139Z,96.13
2022-11-15T21:34:45.673Z,96.30
2022-11-15T21:37:12.221Z,96.51
2022-11-15T21:39:39.239Z,96.69
2022-11-15T21:42:05.901Z,96.63
2022-11-15T21:44:32.408Z,96.20
2022-11-15T21:46:58.896Z,97.30
2022-11-15T21:49:25.918Z,96.96
2022-11-15T21:51:52.384Z,97.05
2022-11-15T21:54:18.842Z,96.01
2022-11-15T21:56:45.585Z,96.56
2022-11-15T21:59:12.138Z,96.29
2022-11-15T22:01:57.442Z,96.74
2022-11-15T22:04:24.168Z,97.61
2022-11-15T22:06:50.953Z,98.25
2022-11-15T22:09:17.416Z,98.88
2022-11-15T22:11:43.894Z,99.05
2022-11-15T22:14:10.517Z,98.18
2022-11-15T22:16:37.799Z,98.98
2022-11-15T22:19:04.487Z,98.70
2022-11-15T22:21:31.844Z,99.66
2022-11-15T22:23:58.491Z,98.63
2022-11-15T22:26:25.087Z,99.06
2022-11-15T22:28:51.610Z,99.11
2022-11-15T22:31:19.379Z,98.61
2022-11-15T22:33:46.214Z,98.88
2022-11-15T22:36:13.145Z,98.59
2022-11-15T22:38:39.690Z,98.53
2022-11-15T22:41:06.303Z,97.97
2022-11-15T22:43:33.062Z,98.51
2022-11-15T22:46:00.296Z,97.64
2022-11-15T22:48:29.155Z,97.64
2022-11-15T22:50:55.877Z,98.16
2022-11-15T22:53:22.824Z,98.57
2022-11-15T22:55:50.726Z,98.84
2022-11-15T22:58:17.433Z,98.17
2022-11-15T23:00:43.973Z,98.36
2022-11-15T23:03:10.728Z,98.49
2022-11-15T23:05:37.815Z,98.18
2022-11-15T23:08:04.511Z,97.89
2022-11-15T23:10:49.756Z,97.77
2022-11-15T23:13:16.642Z,97.68
2022-11-15T23:16:06.188Z,98.25
2022-11-15T23:18:34.420Z,97.89
2022-11-15T23:21:07.899Z,98.02
2022-11-15T23:23:35.036Z,97.23
2022-11-15T23:26:01.994Z,97.74
2022-11-15T23:28:29.552Z,97.87
2022-11-15T23:31:20.167Z,97.51
2022-11-15T23:33:58.559Z,97.02
2022-11-15T23:36:25.815Z,96.79
2022-11-15T23:38:52.472Z,96.73
2022-11-15T23:41:19.233Z,96.64
2022-11-15T23:43:46.049Z,97.22
2022-11-15T23:46:12.568Z,97.81
2022-11-15T23:48:39.065Z,97.96
2022-11-15T23:51:05.636Z,97.47
2022-11-15T23:53:32.213Z,98.30
2022-11-15T23:56:03.440Z,98.25
2022-11-15T23:58:30.026Z,99.32
